createdAt,value
2018-10-12T00:01:35.763Z,99.90
2018-10-12T00:04:04.299Z,99.90
2018-10-12T00:06:32.826Z,99.90
2018-10-12T00:09:01.331Z,99.90
2018-10-12T00:11:29.860Z,99.90
2018-10-12T00:13:58.374Z,99.90
2018-10-12T00:16:26.891Z,99.90
2018-10-12T00:18:55.439Z,99.90
2018-10-12T00:21:23.942Z,99.90
2018-10-12T00:23:52.411Z,99.90
2018-10-12T00:26:20.948Z,99.90
2018-10-12T00:28:49.465Z,99.90
2018-10-12T00:31:17.970Z,99.90
2018-10-12T00:33:46.564Z,99.90
2018-10-12T00:36:15.059Z,99.90
2018-10-12T00:38:43.518Z,99.90
2018-10-12T00:41:12.013Z,99.90
2018-10-12T00:43:40.462Z,99.90
2018-10-12T00:46:08.941Z,99.90
2018-10-12T00:48:37.394Z,99.90
2018-10-12T00:51:05.905Z,99.90
2018-10-12T00:53:34.532Z,99.90
2018-10-12T00:56:03.966Z,99.90
2018-10-12T00:58:32.471Z,99.90
2018-10-12T01:01:00.942Z,99.90
2018-10-12T01:03:29.424Z,99.90
2018-10-12T01:05:57.980Z,99.90
2018-10-12T01:08:26.517Z,99.90
2018-10-12T01:10:55.071Z,99.90
2018-10-12T01:13:23.554Z,99.90
2018-10-12T01:15:52.098Z,99.90
2018-10-12T01:18:20.596Z,99.90
2018-10-12T01:20:49.152Z,99.90
2018-10-12T01:23:17.789Z,99.90
2018-10-12T01:25:46.543Z,99.90
2018-10-12T01:28:15.161Z,99.90
2018-10-12T01:30:43.683Z,99.90
2018-10-12T01:33:18.933Z,99.90
2018-10-12T01:35:47.467Z,99.90
2018-10-12T01:38:15.974Z,99.90
2018-10-12T01:40:47.416Z,99.90
2018-10-12T01:43:15.910Z,99.90
2018-10-12T01:45:44.431Z,99.90
2018-10-12T01:48:12.932Z,99.90
2018-10-12T01:50:41.471Z,99.90
2018-10-12T01:53:10.072Z,99.90
2018-10-12T01:55:38.555Z,99.90
2018-10-12T01:58:07.139Z,99.90
2018-10-12T02:00:35.628Z,99.90
2018-10-12T02:03:04.168Z,99.90
2018-10-12T02:05:32.664Z,99.90
2018-10-12T02:08:01.232Z,99.90
2018-10-12T02:10:29.706Z,99.90
2018-10-12T02:12:58.180Z,99.90
2018-10-12T02:15:26.691Z,99.90
2018-10-12T02:17:55.144Z,99.90
2018-10-12T02:20:23.764Z,99.90
2018-10-12T02:22:52.257Z,99.90
2018-10-12T02:25:20.786Z,99.90
2018-10-12T02:30:48.751Z,99.90
2018-10-12T02:33:17.211Z,99.90
2018-10-12T02:35:45.710Z,99.90
2018-10-12T02:38:14.190Z,99.90
2018-10-12T02:40:42.641Z,99.90
2018-10-12T02:43:11.180Z,99.90
2018-10-12T02:45:39.630Z,99.90
2018-10-12T02:48:08.527Z,99.90
2018-10-12T02:50:37.010Z,99.90
2018-10-12T02:53:05.664Z,99.90
2018-10-12T02:55:34.227Z,99.90
2018-10-12T02:58:02.780Z,99.90
2018-10-12T03:00:31.259Z,99.90
2018-10-12T03:02:59.773Z,99.90
2018-10-12T03:05:28.259Z,99.90
2018-10-12T03:07:56.780Z,99.90
2018-10-12T03:10:25.267Z,99.90
2018-10-12T03:12:53.730Z,99.90
2018-10-12T03:15:22.327Z,99.90
2018-10-12T03:17:50.812Z,99.90
2018-10-12T03:20:19.343Z,99.90
2018-10-12T03:22:47.928Z,99.90
2018-10-12T03:25:16.512Z,99.90
2018-10-12T03:27:56.279Z,99.90
2018-10-12T03:30:24.967Z,99.90
2018-10-12T03:32:56.456Z,99.90
2018-10-12T03:35:25.064Z,99.90
2018-10-12T03:37:53.626Z,99.90
2018-10-12T03:40:22.130Z,99.90
2018-10-12T03:42:50.703Z,99.90
2018-10-12T03:45:19.241Z,99.90
2018-10-12T03:47:47.808Z,99.90
2018-10-12T03:50:16.313Z,99.90
2018-10-12T03:52:44.936Z,99.90
2018-10-12T03:55:13.529Z,99.90
2018-10-12T03:57:42.022Z,99.90
2018-10-12T04:00:10.618Z,99.90
2018-10-12T04:02:39.205Z,99.90
2018-10-12T04:05:07.862Z,99.90
2018-10-12T04:07:37.264Z,99.90
2018-10-12T04:10:05.881Z,99.90
2018-10-12T04:12:34.406Z,99.90
2018-10-12T04:15:02.946Z,99.90
2018-10-12T04:17:31.452Z,99.90
2018-10-12T04:20:00.100Z,99.90
2018-10-12T04:22:28.670Z,99.90
2018-10-12T04:24:57.129Z,99.90
2018-10-12T04:27:25.683Z,99.90
2018-10-12T04:29:54.206Z,99.90
2018-10-12T04:32:22.716Z,99.90
2018-10-12T04:34:51.205Z,99.90
2018-10-12T04:37:19.718Z,99.90
2018-10-12T04:39:56.485Z,99.90
2018-10-12T04:42:25.067Z,99.90
2018-10-12T04:44:53.585Z,99.90
2018-10-12T04:47:24.773Z,99.90
2018-10-12T04:49:53.243Z,99.90
2018-10-12T04:52:23.308Z,99.90
2018-10-12T04:54:51.904Z,99.90
2018-10-12T04:57:20.418Z,99.90
2018-10-12T04:59:48.968Z,99.90
2018-10-12T05:02:17.542Z,99.90
2018-10-12T05:04:46.103Z,99.90
2018-10-12T05:07:16.540Z,99.90
2018-10-12T05:09:45.111Z,99.90
2018-10-12T05:12:13.677Z,99.90
2018-10-12T05:14:42.207Z,99.90
2018-10-12T05:17:10.872Z,99.90
2018-10-12T05:19:39.475Z,99.90
2018-10-12T05:22:08.231Z,99.90
2018-10-12T05:24:36.815Z,99.90
2018-10-12T05:27:05.749Z,99.90
2018-10-12T05:29:34.364Z,99.90
2018-10-12T05:32:02.976Z,99.90
2018-10-12T05:34:34.754Z,99.90
2018-10-12T05:37:03.346Z,99.90
2018-10-12T05:39:31.933Z,99.90
2018-10-12T05:42:00.525Z,99.90
2018-10-12T05:44:29.137Z,99.90
2018-10-12T05:46:57.684Z,99.90
2018-10-12T05:49:37.568Z,99.90
2018-10-12T05:52:06.311Z,99.90
2018-10-12T05:54:34.926Z,99.90
2018-10-12T05:57:03.552Z,99.90
2018-10-12T05:59:32.117Z,99.90
2018-10-12T06:02:00.652Z,99.90
2018-10-12T06:04:29.231Z,99.90
2018-10-12T06:06:58.121Z,99.90
2018-10-12T06:09:26.736Z,99.90
2018-10-12T06:11:55.316Z,99.90
2018-10-12T06:14:23.843Z,99.90
2018-10-12T06:16:52.527Z,99.90
2018-10-12T06:19:21.324Z,99.90
2018-10-12T06:21:49.934Z,99.90
2018-10-12T06:24:18.561Z,99.90
2018-10-12T06:26:48.376Z,99.90
2018-10-12T06:29:17.046Z,99.90
2018-10-12T06:31:45.596Z,99.90
2018-10-12T06:34:14.225Z,99.90
2018-10-12T06:36:43.253Z,99.90
2018-10-12T06:39:12.026Z,99.90
2018-10-12T06:41:41.234Z,99.90
2018-10-12T06:44:09.750Z,99.90
2018-10-12T06:46:38.340Z,99.90
2018-10-12T06:49:07.003Z,99.90
2018-10-12T06:51:35.514Z,99.90
2018-10-12T06:54:04.146Z,99.90
2018-10-12T06:56:33.112Z,99.90
2018-10-12T06:59:01.845Z,99.90
2018-10-12T07:01:30.800Z,99.90
2018-10-12T07:03:59.842Z,99.90
2018-10-12T07:06:29.214Z,99.90
2018-10-12T07:08:57.879Z,99.90
2018-10-12T07:11:26.450Z,99.90
2018-10-12T07:13:55.174Z,99.90
2018-10-12T07:16:23.716Z,99.90
2018-10-12T07:18:52.299Z,99.90
2018-10-12T07:21:21.018Z,99.90
2018-10-12T07:23:49.622Z,99.90
2018-10-12T07:26:18.184Z,99.90
2018-10-12T07:28:46.745Z,99.90
2018-10-12T07:31:15.280Z,99.90
2018-10-12T07:33:43.904Z,99.90
2018-10-12T07:36:12.485Z,99.90
2018-10-12T07:38:41.098Z,99.90
2018-10-12T07:41:09.656Z,99.90
2018-10-12T07:43:38.282Z,99.90
2018-10-12T07:46:07.059Z,99.90
2018-10-12T07:48:35.669Z,99.90
2018-10-12T07:51:04.251Z,99.90
2018-10-12T07:53:32.771Z,99.90
2018-10-12T07:56:01.291Z,99.90
2018-10-12T07:58:29.943Z,99.90
2018-10-12T08:00:58.553Z,99.90
2018-10-12T08:03:27.101Z,99.90
2018-10-12T08:05:55.661Z,99.90
2018-10-12T08:08:24.305Z,99.90
2018-10-12T08:10:52.856Z,99.90
2018-10-12T08:13:21.394Z,99.90
2018-10-12T08:15:52.638Z,99.90
2018-10-12T08:18:21.298Z,99.90
2018-10-12T08:20:49.883Z,99.90
2018-10-12T08:23:18.515Z,99.90
2018-10-12T08:25:47.123Z,99.90
2018-10-12T08:28:15.732Z,99.90
2018-10-12T08:30:44.352Z,99.90
2018-10-12T08:33:12.943Z,99.90
2018-10-12T08:35:41.578Z,99.90
2018-10-12T08:38:10.299Z,99.90
2018-10-12T08:40:38.875Z,99.90
2018-10-12T08:43:07.640Z,99.90
2018-10-12T08:45:36.198Z,99.90
2018-10-12T08:48:04.809Z,99.90
2018-10-12T08:50:33.379Z,99.90
2018-10-12T08:53:01.920Z,99.90
2018-10-12T08:55:30.522Z,99.90
2018-10-12T08:57:59.038Z,99.90
2018-10-12T09:00:27.620Z,99.90
2018-10-12T09:02:56.347Z,99.90
2018-10-12T09:05:25.181Z,99.90
2018-10-12T09:07:53.788Z,99.90
2018-10-12T09:10:22.369Z,99.90
2018-10-12T09:12:50.932Z,99.90
2018-10-12T09:15:19.604Z,99.90
2018-10-12T09:17:48.195Z,99.90
2018-10-12T09:20:16.857Z,99.90
2018-10-12T09:22:45.379Z,99.90
2018-10-12T09:25:13.992Z,99.90
2018-10-12T09:27:42.604Z,99.90
2018-10-12T09:30:11.256Z,99.90
2018-10-12T09:32:39.793Z,99.90
2018-10-12T09:35:08.406Z,99.90
2018-10-12T09:37:36.902Z,99.90
2018-10-12T09:40:05.516Z,99.90
2018-10-12T09:42:34.196Z,99.90
2018-10-12T09:45:02.772Z,99.90
2018-10-12T09:47:31.283Z,99.90
2018-10-12T09:49:59.879Z,99.90
2018-10-12T09:52:28.463Z,99.90
2018-10-12T09:54:57.162Z,99.90
2018-10-12T09:57:41.520Z,99.90
2018-10-12T10:00:15.579Z,99.90
2018-10-12T10:02:48.389Z,99.90
2018-10-12T10:05:17.478Z,99.90
2018-10-12T10:07:46.070Z,99.90
2018-10-12T10:10:14.606Z,99.90
2018-10-12T10:12:43.196Z,99.90
2018-10-12T10:15:11.790Z,99.90
2018-10-12T10:17:40.369Z,99.90
2018-10-12T10:20:09.022Z,99.90
2018-10-12T10:22:37.800Z,99.90
2018-10-12T10:25:06.422Z,99.90
2018-10-12T10:27:34.926Z,99.90
2018-10-12T10:30:03.473Z,99.90
2018-10-12T10:32:32.048Z,99.90
2018-10-12T10:35:00.582Z,99.90
2018-10-12T10:37:29.190Z,99.90
2018-10-12T10:39:57.755Z,99.90
2018-10-12T10:42:26.297Z,99.90
2018-10-12T10:47:54.049Z,99.90
2018-10-12T10:50:22.650Z,97.80
2018-10-12T10:52:51.292Z,97.30
2018-10-12T10:55:19.912Z,96.10
2018-10-12T10:57:49.165Z,97.10
2018-10-12T11:00:18.367Z,97.50
2018-10-12T11:02:46.929Z,96.90
2018-10-12T11:05:15.397Z,97.00
2018-10-12T11:07:43.931Z,96.60
2018-10-12T11:10:12.617Z,94.80
2018-10-12T11:12:41.523Z,95.50
2018-10-12T11:15:10.020Z,94.60
2018-10-12T11:17:38.553Z,93.80
2018-10-12T11:20:38.375Z,93.90
2018-10-12T11:23:06.990Z,91.40
2018-10-12T11:25:35.521Z,93.40
2018-10-12T11:28:04.006Z,90.00
2018-10-12T11:30:32.635Z,90.30
2018-10-12T11:33:01.471Z,89.70
2018-10-12T11:35:30.007Z,88.50
2018-10-12T11:37:59.219Z,91.60
2018-10-12T11:40:27.920Z,88.60
2018-10-12T11:43:07.725Z,90.10
2018-10-12T11:45:36.334Z,91.20
2018-10-12T11:48:04.887Z,91.70
2018-10-12T11:50:33.595Z,90.50
2018-10-12T11:53:02.338Z,89.00
2018-10-12T11:55:31.050Z,87.40
2018-10-12T11:58:01.712Z,88.40
2018-10-12T12:00:30.363Z,86.20
2018-10-12T12:02:58.923Z,90.10
2018-10-12T12:05:27.475Z,88.00
2018-10-12T12:07:56.433Z,86.30
2018-10-12T12:10:25.189Z,86.90
2018-10-12T12:12:53.886Z,89.30
2018-10-12T12:15:22.530Z,87.40
2018-10-12T12:17:51.139Z,85.30
2018-10-12T12:20:19.673Z,89.30
2018-10-12T12:22:48.281Z,89.50
2018-10-12T12:25:16.865Z,86.10
2018-10-12T12:27:45.580Z,87.80
2018-10-12T12:30:14.114Z,89.60
2018-10-12T12:32:42.726Z,88.00
2018-10-12T12:35:11.578Z,89.90
2018-10-12T12:37:40.029Z,90.50
2018-10-12T12:40:08.872Z,91.00
2018-10-12T12:42:37.640Z,89.00
2018-10-12T12:45:07.527Z,90.10
2018-10-12T12:47:36.488Z,91.10
2018-10-12T12:50:05.422Z,90.60
2018-10-12T12:52:34.040Z,91.50
2018-10-12T12:55:02.645Z,90.50
2018-10-12T12:57:31.378Z,90.60
2018-10-12T12:59:59.957Z,91.70
2018-10-12T13:02:28.559Z,90.80
2018-10-12T13:04:58.230Z,91.00
2018-10-12T13:07:26.863Z,90.70
2018-10-12T13:09:55.862Z,90.80
2018-10-12T13:12:24.462Z,92.30
2018-10-12T13:14:53.098Z,92.90
2018-10-12T13:17:21.685Z,92.00
2018-10-12T13:19:50.260Z,91.50
2018-10-12T13:22:18.903Z,91.80
2018-10-12T13:24:47.469Z,92.70
2018-10-12T13:27:16.055Z,92.20
2018-10-12T13:29:44.621Z,92.10
2018-10-12T13:32:13.209Z,92.00
2018-10-12T13:34:41.769Z,92.10
2018-10-12T13:37:10.336Z,93.20
2018-10-12T13:39:38.982Z,92.40
2018-10-12T13:42:07.636Z,92.90
2018-10-12T13:44:36.363Z,92.30
2018-10-12T13:47:04.977Z,93.90
2018-10-12T13:49:33.766Z,93.80
2018-10-12T13:52:02.443Z,93.10
2018-10-12T13:54:31.211Z,92.80
2018-10-12T13:57:01.213Z,93.30
2018-10-12T13:59:30.904Z,93.60
2018-10-12T14:02:00.220Z,93.30
2018-10-12T14:04:29.460Z,94.30
2018-10-12T14:07:00.222Z,94.10
2018-10-12T14:09:28.868Z,93.80
2018-10-12T14:11:57.832Z,93.80
2018-10-12T14:14:26.568Z,93.80
2018-10-12T14:16:55.138Z,94.80
2018-10-12T14:19:24.025Z,94.70
2018-10-12T14:21:52.371Z,94.50
2018-10-12T14:24:20.983Z,95.00
2018-10-12T14:26:49.716Z,95.10
2018-10-12T14:29:18.312Z,96.20
2018-10-12T14:31:46.841Z,95.60
2018-10-12T14:34:15.393Z,95.10
2018-10-12T14:36:44.000Z,96.30
2018-10-12T14:39:12.644Z,97.00
2018-10-12T14:41:41.376Z,96.80
2018-10-12T14:44:10.029Z,96.40
2018-10-12T14:46:38.575Z,96.40
2018-10-12T14:49:07.145Z,96.40
2018-10-12T14:51:35.943Z,96.70
2018-10-12T14:54:04.484Z,97.00
2018-10-12T14:56:33.079Z,96.40
2018-10-12T14:59:01.660Z,98.60
2018-10-12T15:01:30.210Z,99.60
2018-10-12T15:03:58.704Z,99.90
2018-10-12T15:06:27.225Z,99.90
2018-10-12T15:08:55.729Z,99.90
2018-10-12T15:11:24.384Z,99.90
2018-10-12T15:13:52.964Z,99.90
2018-10-12T15:16:21.588Z,99.90
2018-10-12T15:18:50.087Z,99.90
2018-10-12T15:21:18.717Z,99.90
2018-10-12T15:23:47.199Z,99.90
2018-10-12T15:26:15.941Z,99.90
2018-10-12T15:28:44.490Z,99.90
2018-10-12T15:31:13.240Z,99.90
2018-10-12T15:33:42.428Z,99.90
2018-10-12T15:36:11.017Z,99.90
2018-10-12T15:38:39.592Z,99.90
2018-10-12T15:41:08.498Z,99.90
2018-10-12T15:43:37.697Z,99.90
2018-10-12T15:46:06.180Z,99.90
2018-10-12T15:48:34.689Z,99.90
2018-10-12T15:51:03.294Z,99.90
2018-10-12T15:53:31.917Z,99.90
2018-10-12T15:56:00.496Z,99.90
2018-10-12T15:58:28.957Z,99.90
2018-10-12T16:00:57.461Z,99.90
2018-10-12T16:03:25.994Z,99.90
2018-10-12T16:05:54.652Z,99.90
2018-10-12T16:08:23.251Z,99.90
2018-10-12T16:10:53.580Z,99.90
2018-10-12T16:13:22.349Z,99.90
2018-10-12T16:15:52.962Z,99.90
2018-10-12T16:18:22.952Z,99.90
2018-10-12T16:20:55.558Z,99.90
2018-10-12T16:23:25.850Z,99.90
2018-10-12T16:26:06.892Z,99.90
2018-10-12T16:28:35.437Z,99.90
2018-10-12T16:31:04.037Z,99.90
2018-10-12T16:33:32.525Z,99.90
2018-10-12T16:36:01.271Z,99.90
2018-10-12T16:38:29.763Z,99.90
2018-10-12T16:40:58.349Z,99.90
2018-10-12T16:43:26.930Z,99.90
2018-10-12T16:45:56.963Z,99.90
2018-10-12T16:48:25.553Z,99.90
2018-10-12T16:50:54.145Z,99.90
2018-10-12T16:53:23.042Z,99.90
2018-10-12T16:55:58.209Z,99.90
2018-10-12T16:58:26.807Z,99.90
2018-10-12T17:00:55.399Z,99.90
2018-10-12T17:03:23.905Z,99.90
2018-10-12T17:05:52.533Z,99.90
2018-10-12T17:08:21.167Z,99.90
2018-10-12T17:10:49.747Z,99.90
2018-10-12T17:13:18.290Z,99.90
2018-10-12T17:15:47.045Z,99.90
2018-10-12T17:18:15.677Z,99.90
2018-10-12T17:20:45.069Z,99.90
2018-10-12T17:23:13.647Z,99.90
2018-10-12T17:25:42.266Z,99.90
2018-10-12T17:28:11.104Z,99.90
2018-10-12T17:30:39.759Z,99.90
2018-10-12T17:33:08.931Z,99.90
2018-10-12T17:35:37.790Z,99.90
2018-10-12T17:38:06.715Z,99.90
2018-10-12T17:40:35.682Z,99.90
2018-10-12T17:43:04.799Z,99.90
2018-10-12T17:45:33.532Z,99.90
2018-10-12T17:48:02.104Z,99.90
2018-10-12T17:50:31.079Z,99.90
2018-10-12T17:53:00.000Z,99.90
2018-10-12T17:55:28.565Z,99.90
2018-10-12T17:57:57.155Z,99.90
2018-10-12T18:00:26.082Z,99.90
2018-10-12T18:02:55.264Z,99.90
2018-10-12T18:05:24.731Z,99.90
2018-10-12T18:07:53.352Z,99.90
2018-10-12T18:10:21.910Z,99.90
2018-10-12T18:12:51.068Z,99.90
2018-10-12T18:15:19.826Z,99.90
2018-10-12T18:17:48.882Z,99.90
2018-10-12T18:20:17.827Z,99.90
2018-10-12T18:22:46.668Z,99.90
2018-10-12T18:25:15.706Z,99.90
2018-10-12T18:27:44.585Z,99.90
2018-10-12T18:30:13.303Z,99.90
2018-10-12T18:32:41.968Z,99.90
2018-10-12T18:35:10.904Z,99.90
2018-10-12T18:37:39.702Z,99.90
2018-10-12T18:40:08.561Z,99.90
2018-10-12T18:42:37.734Z,99.90
2018-10-12T18:45:06.443Z,99.90
2018-10-12T18:47:35.820Z,99.90
2018-10-12T18:50:04.875Z,99.90
2018-10-12T18:52:34.440Z,99.90
2018-10-12T18:55:03.212Z,99.90
2018-10-12T18:57:34.451Z,99.90
2018-10-12T19:00:04.838Z,99.90
2018-10-12T19:02:33.944Z,99.90
2018-10-12T19:05:03.757Z,99.90
2018-10-12T19:07:32.704Z,99.90
2018-10-12T19:10:01.433Z,99.90
2018-10-12T19:12:30.153Z,99.90
2018-10-12T19:14:58.830Z,99.90
2018-10-12T19:17:27.619Z,99.90
2018-10-12T19:19:56.173Z,99.90
2018-10-12T19:22:24.682Z,99.90
2018-10-12T19:24:53.221Z,99.90
2018-10-12T19:27:21.762Z,99.90
2018-10-12T19:29:50.397Z,99.90
2018-10-12T19:32:19.005Z,99.90
2018-10-12T19:34:47.525Z,99.90
2018-10-12T19:37:16.045Z,99.90
2018-10-12T19:39:44.697Z,99.90
2018-10-12T19:42:13.245Z,99.90
2018-10-12T19:44:41.853Z,99.90
2018-10-12T19:47:10.420Z,99.90
2018-10-12T19:49:39.002Z,99.90
2018-10-12T19:52:07.594Z,99.90
2018-10-12T19:54:36.128Z,99.90
2018-10-12T19:57:04.798Z,99.90
2018-10-12T19:59:33.418Z,99.90
2018-10-12T20:02:01.991Z,99.90
2018-10-12T20:04:30.533Z,99.90
2018-10-12T20:06:59.112Z,99.90
2018-10-12T20:09:27.685Z,99.90
2018-10-12T20:11:56.352Z,99.90
2018-10-12T20:14:24.960Z,99.90
2018-10-12T20:16:53.519Z,99.90
2018-10-12T20:19:22.094Z,99.90
2018-10-12T20:21:50.684Z,99.90
2018-10-12T20:24:19.337Z,99.90
2018-10-12T20:26:48.428Z,99.90
2018-10-12T20:29:17.130Z,99.90
2018-10-12T20:31:45.744Z,99.90
2018-10-12T20:34:14.272Z,99.90
2018-10-12T20:36:42.847Z,99.90
2018-10-12T20:39:12.322Z,99.90
2018-10-12T20:41:41.083Z,99.90
2018-10-12T20:44:09.837Z,99.90
2018-10-12T20:46:38.666Z,99.90
2018-10-12T20:49:07.272Z,99.90
2018-10-12T20:51:36.140Z,99.90
2018-10-12T20:54:04.741Z,99.90
2018-10-12T20:56:33.266Z,99.90
2018-10-12T20:59:03.685Z,99.90
2018-10-12T21:01:32.347Z,99.90
2018-10-12T21:04:01.022Z,99.90
2018-10-12T21:06:29.517Z,99.90
2018-10-12T21:08:58.059Z,99.90
2018-10-12T21:11:26.561Z,99.90
2018-10-12T21:13:55.076Z,99.90
2018-10-12T21:16:23.648Z,99.90
2018-10-12T21:18:52.177Z,99.90
2018-10-12T21:21:20.718Z,99.90
2018-10-12T21:23:49.359Z,99.90
2018-10-12T21:26:17.895Z,99.90
2018-10-12T21:28:46.516Z,99.90
2018-10-12T21:31:15.061Z,99.90
2018-10-12T21:33:44.027Z,99.90
2018-10-12T21:36:12.906Z,99.90
2018-10-12T21:38:41.476Z,99.90
2018-10-12T21:41:10.010Z,99.90
2018-10-12T21:43:38.629Z,99.90
2018-10-12T21:46:07.177Z,99.90
2018-10-12T21:48:35.736Z,99.90
2018-10-12T21:51:04.322Z,99.90
2018-10-12T21:53:32.872Z,99.90
2018-10-12T21:56:01.449Z,99.90
2018-10-12T21:58:30.075Z,99.90
2018-10-12T22:01:04.226Z,99.90
2018-10-12T22:03:34.310Z,99.90
2018-10-12T22:06:02.831Z,99.90
2018-10-12T22:08:36.727Z,99.90
2018-10-12T22:11:06.005Z,99.90
2018-10-12T22:13:35.134Z,99.90
2018-10-12T22:16:03.763Z,99.90
2018-10-12T22:18:32.353Z,99.90
2018-10-12T22:21:00.848Z,99.90
2018-10-12T22:23:29.383Z,99.90
2018-10-12T22:25:58.161Z,99.90
2018-10-12T22:28:26.516Z,99.90
2018-10-12T22:30:54.989Z,99.90
2018-10-12T22:33:24.334Z,99.90
2018-10-12T22:35:52.887Z,99.90
2018-10-12T22:38:21.479Z,99.90
2018-10-12T22:40:50.162Z,99.90
2018-10-12T22:43:18.807Z,99.90
2018-10-12T22:45:47.289Z,99.90
2018-10-12T22:48:15.879Z,99.90
2018-10-12T22:50:44.380Z,99.90
2018-10-12T22:53:12.877Z,99.90
2018-10-12T22:55:41.400Z,99.90
2018-10-12T22:58:09.963Z,99.90
2018-10-12T23:00:38.458Z,99.90
2018-10-12T23:03:07.074Z,99.90
2018-10-12T23:05:38.658Z,99.90
2018-10-12T23:08:07.345Z,99.90
2018-10-12T23:10:35.816Z,99.90
2018-10-12T23:13:04.347Z,99.90
2018-10-12T23:15:32.809Z,99.90
2018-10-12T23:18:01.304Z,99.90
2018-10-12T23:20:29.874Z,99.90
2018-10-12T23:22:58.397Z,99.90
2018-10-12T23:25:26.914Z,99.90
2018-10-12T23:27:55.435Z,99.90
2018-10-12T23:30:24.001Z,99.90
2018-10-12T23:32:52.614Z,99.90
2018-10-12T23:35:21.114Z,99.90
2018-10-12T23:37:49.651Z,99.90
2018-10-12T23:40:18.150Z,99.90
2018-10-12T23:42:46.683Z,99.90
2018-10-12T23:45:15.232Z,99.90
2018-10-12T23:47:43.895Z,99.90
2018-10-12T23:50:12.461Z,99.90
2018-10-12T23:52:41.039Z,99.90
2018-10-12T23:55:09.527Z,99.90
2018-10-12T23:57:38.055Z,99.90
